createdAt,value
2022-12-17T00:02:36.638Z,56.60
2022-12-17T00:05:25.442Z,55.10
2022-12-17T00:08:20.821Z,54.40
2022-12-17T00:11:08.987Z,54.70
2022-12-17T00:13:58.178Z,53.50
2022-12-17T00:16:46.981Z,54.90
2022-12-17T00:19:34.950Z,53.90
2022-12-17T00:22:23.237Z,55.00
2022-12-17T00:25:11.731Z,53.60
2022-12-17T00:28:00.389Z,54.40
2022-12-17T00:30:48.637Z,53.20
2022-12-17T00:33:36.835Z,54.40
2022-12-17T00:36:25.802Z,53.50
2022-12-17T00:39:14.007Z,53.00
2022-12-17T00:42:02.105Z,52.40
2022-12-17T00:44:50.277Z,53.20
2022-12-17T00:47:38.486Z,52.70
2022-12-17T00:50:27.616Z,52.30
2022-12-17T00:53:16.019Z,52.10
2022-12-17T00:56:04.270Z,54.00
2022-12-17T00:58:52.940Z,54.50
2022-12-17T01:01:43.724Z,55.00
2022-12-17T01:04:32.536Z,54.30
2022-12-17T01:07:20.994Z,53.80
2022-12-17T01:10:09.414Z,52.20
2022-12-17T01:13:18.837Z,52.90
2022-12-17T01:16:07.279Z,52.30
2022-12-17T01:18:57.594Z,53.70
2022-12-17T01:21:46.341Z,53.50
2022-12-17T01:24:35.280Z,53.60
2022-12-17T01:27:23.428Z,53.30
2022-12-17T01:30:12.479Z,52.70
2022-12-17T01:33:02.635Z,52.30
2022-12-17T01:35:52.194Z,54.00
2022-12-17T01:38:43.030Z,51.80
2022-12-17T01:41:32.564Z,51.10
2022-12-17T01:44:42.117Z,52.80
2022-12-17T01:47:31.144Z,51.60
2022-12-17T01:50:21.922Z,52.70
2022-12-17T01:53:14.219Z,50.90
2022-12-17T01:56:03.078Z,51.10
2022-12-17T01:58:52.079Z,51.70
2022-12-17T02:01:41.410Z,51.20
2022-12-17T02:04:31.053Z,52.20
2022-12-17T02:07:53.742Z,51.00
2022-12-17T02:10:46.921Z,50.50
2022-12-17T02:13:46.050Z,52.60
2022-12-17T02:16:55.640Z,51.90
2022-12-17T02:20:11.633Z,52.00
2022-12-17T02:23:36.920Z,52.80
2022-12-17T02:27:17.092Z,52.60
2022-12-17T02:30:11.856Z,50.40
2022-12-17T02:33:02.103Z,53.20
2022-12-17T02:36:14.111Z,53.50
2022-12-17T02:39:02.641Z,52.60
2022-12-17T02:42:00.530Z,52.60
2022-12-17T02:44:51.012Z,50.50
2022-12-17T02:47:40.978Z,51.80
2022-12-17T02:50:31.107Z,51.60
2022-12-17T02:53:25.141Z,52.40
2022-12-17T02:56:14.785Z,52.10
2022-12-17T02:59:03.139Z,50.70
2022-12-17T03:01:51.331Z,51.50
2022-12-17T03:04:39.844Z,51.20
2022-12-17T03:07:28.785Z,51.40
2022-12-17T03:10:18.487Z,51.70
2022-12-17T03:13:06.850Z,51.90
2022-12-17T03:15:54.652Z,51.10
2022-12-17T03:18:42.896Z,53.20
2022-12-17T03:21:30.905Z,52.20
2022-12-17T03:24:19.511Z,52.20
2022-12-17T03:27:07.492Z,52.90
2022-12-17T03:29:55.954Z,51.50
2022-12-17T03:32:58.044Z,51.50
2022-12-17T03:35:46.734Z,53.00
2022-12-17T03:38:35.739Z,53.90
2022-12-17T03:41:25.274Z,55.00
2022-12-17T03:44:14.709Z,53.90
2022-12-17T03:47:03.508Z,53.80
2022-12-17T03:49:52.061Z,54.80
2022-12-17T03:52:41.106Z,55.40
2022-12-17T03:55:29.144Z,53.50
2022-12-17T03:58:19.293Z,54.40
2022-12-17T04:01:08.089Z,56.20
2022-12-17T04:03:57.545Z,54.20
2022-12-17T04:06:46.065Z,55.00
2022-12-17T04:09:35.599Z,55.20
2022-12-17T04:12:25.205Z,56.20
2022-12-17T04:15:13.717Z,55.60
2022-12-17T04:18:02.107Z,55.20
2022-12-17T04:20:51.274Z,55.10
2022-12-17T04:23:40.180Z,57.20
2022-12-17T04:26:29.871Z,55.80
2022-12-17T04:29:19.347Z,55.40
2022-12-17T04:32:08.125Z,56.20
2022-12-17T04:34:56.753Z,54.30
2022-12-17T04:37:45.879Z,55.50
2022-12-17T04:40:34.943Z,55.50
2022-12-17T04:43:41.541Z,56.80
2022-12-17T04:46:29.887Z,56.90
2022-12-17T04:49:18.086Z,57.90
2022-12-17T04:52:06.160Z,56.70
2022-12-17T04:54:54.044Z,57.70
2022-12-17T04:57:42.062Z,58.40
2022-12-17T05:00:31.004Z,56.70
2022-12-17T05:03:30.649Z,54.50
2022-12-17T05:06:18.650Z,55.10
2022-12-17T05:09:07.078Z,57.80
2022-12-17T05:11:55.121Z,56.50
2022-12-17T05:14:43.015Z,55.00
2022-12-17T05:17:31.057Z,57.20
2022-12-17T05:20:19.121Z,55.90
2022-12-17T05:23:07.162Z,56.80
2022-12-17T05:25:55.794Z,56.80
2022-12-17T05:28:44.192Z,55.40
2022-12-17T05:31:33.395Z,54.60
2022-12-17T05:34:22.012Z,55.40
2022-12-17T05:37:10.233Z,55.70
2022-12-17T05:39:58.269Z,56.20
2022-12-17T05:42:46.845Z,56.00
2022-12-17T05:45:34.857Z,55.10
2022-12-17T05:48:23.327Z,55.90
2022-12-17T05:51:11.780Z,56.00
2022-12-17T05:53:59.791Z,55.80
2022-12-17T05:56:48.237Z,55.00
2022-12-17T05:59:36.734Z,57.40
2022-12-17T06:02:25.313Z,58.50
2022-12-17T06:05:14.352Z,57.80
2022-12-17T06:08:02.498Z,57.80
2022-12-17T06:10:50.436Z,59.40
2022-12-17T06:13:38.642Z,59.80
2022-12-17T06:16:27.114Z,58.00
2022-12-17T06:19:15.314Z,57.50
2022-12-17T06:22:03.454Z,57.20
2022-12-17T06:24:51.779Z,57.10
2022-12-17T06:27:40.142Z,58.20
2022-12-17T06:30:28.775Z,57.40
2022-12-17T06:33:32.119Z,57.80
2022-12-17T06:36:22.885Z,57.70
2022-12-17T06:39:11.609Z,58.00
2022-12-17T06:42:04.746Z,58.40
2022-12-17T06:44:53.150Z,58.60
2022-12-17T06:47:41.895Z,58.40
2022-12-17T06:50:30.050Z,58.40
2022-12-17T06:53:23.813Z,57.60
2022-12-17T06:56:12.825Z,59.00
2022-12-17T06:59:01.119Z,59.00
2022-12-17T07:01:49.770Z,60.60
2022-12-17T07:04:38.285Z,58.90
2022-12-17T07:07:26.621Z,58.90
2022-12-17T07:10:14.718Z,59.50
2022-12-17T07:13:02.909Z,58.10
2022-12-17T07:15:51.726Z,59.10
2022-12-17T07:18:41.297Z,59.90
2022-12-17T07:21:29.285Z,60.70
2022-12-17T07:24:17.730Z,60.20
2022-12-17T07:27:06.491Z,61.40
2022-12-17T07:29:55.726Z,61.40
2022-12-17T07:32:43.904Z,60.90
2022-12-17T07:35:32.098Z,60.20
2022-12-17T07:38:27.272Z,61.20
2022-12-17T07:41:15.703Z,61.10
2022-12-17T07:44:05.768Z,61.90
2022-12-17T07:46:53.800Z,62.00
2022-12-17T07:49:41.947Z,62.10
2022-12-17T07:52:30.175Z,62.90
2022-12-17T07:55:18.586Z,63.30
2022-12-17T07:58:06.802Z,63.10
2022-12-17T08:00:54.966Z,63.70
2022-12-17T08:03:43.224Z,63.70
2022-12-17T08:06:31.116Z,64.20
2022-12-17T08:09:19.009Z,64.60
2022-12-17T08:12:07.073Z,65.60
2022-12-17T08:14:55.720Z,65.90
2022-12-17T08:17:44.192Z,66.20
2022-12-17T08:20:33.482Z,67.50
2022-12-17T08:23:24.160Z,66.70
2022-12-17T08:26:12.512Z,67.20
2022-12-17T08:29:00.691Z,68.40
2022-12-17T08:31:48.776Z,67.70
2022-12-17T08:34:37.052Z,67.90
2022-12-17T08:37:39.260Z,68.40
2022-12-17T08:40:28.463Z,68.70
2022-12-17T08:43:19.624Z,69.20
2022-12-17T08:46:11.997Z,69.70
2022-12-17T08:49:00.053Z,70.50
2022-12-17T08:51:48.499Z,70.20
2022-12-17T08:54:37.116Z,70.60
2022-12-17T08:57:31.762Z,70.40
2022-12-17T09:00:21.161Z,71.00
2022-12-17T09:03:09.534Z,71.10
2022-12-17T09:05:57.756Z,71.70
2022-12-17T09:08:54.908Z,71.60
2022-12-17T09:11:42.991Z,72.70
2022-12-17T09:14:31.380Z,72.80
2022-12-17T09:17:19.435Z,73.20
2022-12-17T09:20:08.895Z,73.30
2022-12-17T09:22:57.410Z,73.30
2022-12-17T09:25:46.009Z,73.90
2022-12-17T09:28:34.766Z,74.50
2022-12-17T09:31:23.237Z,74.10
2022-12-17T09:34:14.064Z,74.70
2022-12-17T09:37:04.097Z,75.10
2022-12-17T09:39:52.457Z,75.10
2022-12-17T09:43:17.154Z,75.30
2022-12-17T09:46:24.761Z,75.40
2022-12-17T09:49:23.964Z,75.70
2022-12-17T09:52:12.561Z,76.00
2022-12-17T09:55:10.817Z,76.50
2022-12-17T09:57:58.901Z,76.60
2022-12-17T10:00:49.269Z,77.20
2022-12-17T10:03:42.945Z,77.40
2022-12-17T10:06:45.411Z,77.40
2022-12-17T10:09:39.062Z,78.10
2022-12-17T10:12:35.501Z,78.50
2022-12-17T10:15:24.339Z,78.70
2022-12-17T10:18:13.038Z,79.00
2022-12-17T10:21:21.856Z,79.30
2022-12-17T10:24:14.100Z,80.00
2022-12-17T10:27:09.694Z,80.00
2022-12-17T10:29:59.985Z,80.40
2022-12-17T10:32:49.453Z,80.50
2022-12-17T10:35:57.438Z,80.80
2022-12-17T10:38:52.513Z,81.40
2022-12-17T10:41:54.773Z,80.80
2022-12-17T10:44:51.768Z,81.20
2022-12-17T10:47:43.761Z,81.90
2022-12-17T10:50:35.960Z,82.30
2022-12-17T10:53:37.014Z,82.10
2022-12-17T10:56:26.610Z,82.80
2022-12-17T10:59:15.822Z,82.70
2022-12-17T11:02:04.301Z,82.50
2022-12-17T11:04:58.499Z,82.90
2022-12-17T11:07:57.980Z,82.50
2022-12-17T11:10:53.475Z,83.00
2022-12-17T11:13:55.999Z,83.70
2022-12-17T11:16:50.592Z,83.80
2022-12-17T11:19:48.281Z,83.90
2022-12-17T11:23:04.280Z,84.10
2022-12-17T11:26:16.069Z,84.20
2022-12-17T11:29:05.375Z,84.70
2022-12-17T11:32:14.919Z,84.70
2022-12-17T11:35:37.111Z,85.70
2022-12-17T11:39:00.966Z,84.70
2022-12-17T11:41:55.925Z,85.20
2022-12-17T11:45:01.711Z,85.20
2022-12-17T11:48:21.679Z,85.50
2022-12-17T11:51:27.066Z,85.20
2022-12-17T11:55:10.444Z,84.80
2022-12-17T11:58:11.430Z,85.30
2022-12-17T12:01:52.578Z,85.10
2022-12-17T12:05:17.530Z,85.20
2022-12-17T12:08:50.284Z,85.00
2022-12-17T12:11:59.218Z,84.90
2022-12-17T12:15:07.875Z,84.70
2022-12-17T12:18:05.006Z,85.00
2022-12-17T12:20:56.070Z,84.70
2022-12-17T12:24:16.405Z,84.70
2022-12-17T12:27:20.397Z,84.90
2022-12-17T12:30:26.487Z,84.60
2022-12-17T12:33:44.250Z,84.70
2022-12-17T12:36:35.523Z,85.10
2022-12-17T12:39:24.027Z,84.80
2022-12-17T12:43:00.039Z,85.10
2022-12-17T12:46:13.356Z,84.80
2022-12-17T12:49:39.855Z,84.80
2022-12-17T12:52:35.832Z,84.80
2022-12-17T12:55:25.262Z,85.10
2022-12-17T12:58:45.169Z,84.70
2022-12-17T13:01:33.846Z,84.00
2022-12-17T13:04:35.990Z,84.90
2022-12-17T13:07:07.541Z,84.70
2022-12-17T13:09:52.287Z,84.80
2022-12-17T13:12:34.481Z,84.60
2022-12-17T13:15:34.074Z,84.70
2022-12-17T13:18:24.919Z,85.00
2022-12-17T13:21:05.142Z,85.20
2022-12-17T13:23:40.953Z,85.20
2022-12-17T13:26:26.267Z,85.30
2022-12-17T13:28:59.785Z,85.00
2022-12-17T13:31:36.259Z,85.00
2022-12-17T13:34:19.529Z,85.20
2022-12-17T13:37:12.192Z,85.30
2022-12-17T13:39:54.865Z,85.30
2022-12-17T13:42:32.824Z,85.30
2022-12-17T13:45:03.801Z,85.30
2022-12-17T13:47:37.271Z,85.60
2022-12-17T13:50:36.628Z,85.80
2022-12-17T13:53:15.484Z,86.10
2022-12-17T13:55:54.266Z,86.00
2022-12-17T13:58:34.306Z,86.20
2022-12-17T14:01:13.555Z,86.10
2022-12-17T14:04:07.513Z,86.10
2022-12-17T14:06:41.604Z,85.70
2022-12-17T14:09:22.515Z,86.20
2022-12-17T14:12:11.954Z,85.90
2022-12-17T14:14:45.357Z,86.00
2022-12-17T14:17:31.115Z,85.90
2022-12-17T14:20:13.433Z,85.90
2022-12-17T14:22:51.830Z,85.70
2022-12-17T14:25:32.767Z,85.40
2022-12-17T14:28:07.207Z,85.70
2022-12-17T14:31:17.380Z,85.50
2022-12-17T14:33:39.404Z,85.40
2022-12-17T14:36:25.474Z,86.00
2022-12-17T14:39:05.246Z,86.00
2022-12-17T14:41:59.571Z,86.00
2022-12-17T14:44:32.991Z,86.10
2022-12-17T14:47:22.826Z,84.70
2022-12-17T14:50:28.859Z,84.00
2022-12-17T14:53:02.651Z,81.00
2022-12-17T14:55:57.708Z,79.30
2022-12-17T14:58:29.602Z,78.10
2022-12-17T15:01:15.333Z,78.50
2022-12-17T15:03:50.828Z,77.90
2022-12-17T15:06:22.656Z,77.40
2022-12-17T15:08:55.145Z,77.70
2022-12-17T15:11:44.562Z,77.00
2022-12-17T15:14:33.806Z,76.60
2022-12-17T15:17:04.167Z,75.80
2022-12-17T15:19:34.727Z,76.90
2022-12-17T15:22:06.911Z,76.40
2022-12-17T15:24:37.258Z,76.20
2022-12-17T15:27:07.488Z,76.10
2022-12-17T15:29:38.154Z,76.10
2022-12-17T15:32:09.692Z,75.90
2022-12-17T15:34:41.252Z,75.80
2022-12-17T15:37:12.403Z,76.20
2022-12-17T15:39:43.566Z,76.30
2022-12-17T15:42:32.259Z,76.20
2022-12-17T15:45:02.982Z,76.00
2022-12-17T15:47:33.360Z,76.30
2022-12-17T15:50:03.942Z,77.00
2022-12-17T15:52:34.355Z,76.60
2022-12-17T15:55:06.253Z,77.30
2022-12-17T15:57:36.935Z,77.70
2022-12-17T16:00:08.579Z,77.40
2022-12-17T16:02:40.015Z,77.40
2022-12-17T16:05:11.665Z,77.70
2022-12-17T16:07:42.336Z,77.90
2022-12-17T16:10:13.918Z,78.30
2022-12-17T16:12:44.700Z,78.40
2022-12-17T16:15:15.749Z,77.80
2022-12-17T16:17:46.071Z,78.90
2022-12-17T16:20:16.995Z,79.00
2022-12-17T16:22:47.286Z,78.80
2022-12-17T16:25:17.660Z,80.00
2022-12-17T16:27:48.595Z,79.40
2022-12-17T16:30:19.295Z,80.10
2022-12-17T16:32:50.466Z,80.30
2022-12-17T16:35:21.109Z,80.80
2022-12-17T16:37:51.798Z,80.20
2022-12-17T16:40:22.798Z,79.70
2022-12-17T16:42:53.525Z,80.20
2022-12-17T16:45:26.305Z,80.40
2022-12-17T16:47:57.948Z,80.00
2022-12-17T16:50:32.639Z,80.30
2022-12-17T16:53:03.372Z,80.10
2022-12-17T16:55:34.549Z,79.70
2022-12-17T16:58:04.939Z,80.60
2022-12-17T17:00:37.545Z,80.00
2022-12-17T17:03:10.195Z,80.20
2022-12-17T17:05:42.608Z,79.40
2022-12-17T17:08:12.890Z,79.70
2022-12-17T17:10:43.122Z,80.00
2022-12-17T17:13:15.152Z,80.10
2022-12-17T17:15:47.694Z,81.30
2022-12-17T17:18:22.219Z,79.50
2022-12-17T17:20:54.940Z,79.80
2022-12-17T17:23:25.542Z,80.60
2022-12-17T17:25:57.532Z,80.70
2022-12-17T17:28:30.171Z,80.70
2022-12-17T17:31:05.989Z,80.80
2022-12-17T17:33:40.444Z,80.60
2022-12-17T17:36:16.091Z,80.80
2022-12-17T17:38:46.800Z,80.80
2022-12-17T17:41:20.791Z,80.80
2022-12-17T17:43:54.912Z,80.50
2022-12-17T17:46:25.421Z,81.60
2022-12-17T17:48:57.886Z,81.50
2022-12-17T17:52:07.166Z,81.90
2022-12-17T17:54:22.434Z,81.60
2022-12-17T17:56:56.927Z,82.00
2022-12-17T17:59:33.371Z,82.50
2022-12-17T18:02:05.109Z,81.70
2022-12-17T18:04:36.364Z,82.40
2022-12-17T18:09:57.818Z,82.60
2022-12-17T18:12:45.805Z,83.00
2022-12-17T18:15:17.853Z,83.60
2022-12-17T18:17:54.092Z,83.30
2022-12-17T18:20:24.724Z,82.70
2022-12-17T18:22:55.436Z,83.20
2022-12-17T18:25:25.695Z,83.20
2022-12-17T18:27:57.058Z,83.30
2022-12-17T18:30:27.269Z,83.40
2022-12-17T18:32:58.930Z,82.80
2022-12-17T18:35:29.203Z,82.70
2022-12-17T18:37:59.473Z,83.60
2022-12-17T18:40:33.304Z,83.00
2022-12-17T18:43:28.273Z,83.10
2022-12-17T18:45:59.524Z,82.60
2022-12-17T18:48:30.157Z,83.20
2022-12-17T18:51:08.020Z,83.30
2022-12-17T18:53:38.239Z,83.40
2022-12-17T18:56:31.723Z,83.70
2022-12-17T18:59:06.324Z,84.40
2022-12-17T19:01:38.939Z,84.00
2022-12-17T19:04:12.415Z,84.10
2022-12-17T19:06:46.526Z,84.10
2022-12-17T19:09:25.854Z,83.70
2022-12-17T19:12:15.684Z,84.40
2022-12-17T19:15:05.663Z,84.20
2022-12-17T19:17:36.512Z,84.90
2022-12-17T19:20:07.528Z,84.50
2022-12-17T19:22:38.499Z,84.70
2022-12-17T19:25:10.491Z,85.50
2022-12-17T19:27:41.199Z,85.20
2022-12-17T19:30:13.088Z,82.80
2022-12-17T19:32:44.314Z,82.80
2022-12-17T19:35:15.001Z,83.90
2022-12-17T19:37:45.807Z,83.40
2022-12-17T19:40:16.881Z,82.70
2022-12-17T19:42:48.112Z,81.90
2022-12-17T19:45:19.138Z,80.80
2022-12-17T19:47:50.451Z,80.20
2022-12-17T19:50:21.004Z,81.50
2022-12-17T19:52:51.365Z,80.90
2022-12-17T19:55:23.162Z,80.30
2022-12-17T19:57:54.100Z,80.10
2022-12-17T20:00:26.959Z,80.10
2022-12-17T20:02:58.307Z,79.20
2022-12-17T20:05:28.579Z,79.00
2022-12-17T20:08:00.526Z,79.20
2022-12-17T20:10:30.754Z,79.10
2022-12-17T20:13:01.007Z,77.90
2022-12-17T20:15:32.280Z,77.80
2022-12-17T20:18:02.601Z,77.60
2022-12-17T20:20:33.337Z,77.40
2022-12-17T20:23:04.031Z,77.00
2022-12-17T20:25:34.366Z,76.20
2022-12-17T20:28:05.582Z,75.80
2022-12-17T20:30:36.303Z,75.90
2022-12-17T20:33:07.965Z,77.00
2022-12-17T20:35:42.018Z,77.30
2022-12-17T20:38:14.151Z,76.00
2022-12-17T20:40:45.167Z,76.20
2022-12-17T20:43:15.680Z,74.80
2022-12-17T20:45:53.994Z,75.10
2022-12-17T20:48:25.692Z,75.70
2022-12-17T20:50:56.552Z,74.70
2022-12-17T20:53:27.058Z,74.10
2022-12-17T20:56:06.519Z,74.00
2022-12-17T20:58:38.116Z,72.90
2022-12-17T21:01:13.648Z,72.50
2022-12-17T21:03:48.331Z,71.40
2022-12-17T21:06:31.013Z,71.60
2022-12-17T21:09:02.465Z,71.10
2022-12-17T21:11:35.600Z,71.20
2022-12-17T21:14:11.227Z,72.00
2022-12-17T21:16:42.890Z,70.10
2022-12-17T21:19:18.355Z,69.30
2022-12-17T21:21:49.302Z,70.30
2022-12-17T21:24:19.815Z,69.70
2022-12-17T21:26:51.426Z,69.70
2022-12-17T21:29:23.095Z,69.40
2022-12-17T21:31:55.095Z,70.10
2022-12-17T21:34:29.547Z,69.30
2022-12-17T21:36:59.847Z,69.90
2022-12-17T21:39:31.090Z,69.60
2022-12-17T21:42:18.995Z,68.00
2022-12-17T21:44:49.380Z,67.20
2022-12-17T21:47:20.620Z,67.30
2022-12-17T21:49:52.277Z,66.10
2022-12-17T21:52:23.518Z,64.60
2022-12-17T21:54:54.826Z,65.50
2022-12-17T21:57:25.289Z,64.60
2022-12-17T21:59:56.253Z,64.10
2022-12-17T22:02:28.595Z,63.40
2022-12-17T22:04:59.622Z,63.20
2022-12-17T22:07:32.550Z,63.60
2022-12-17T22:10:39.403Z,63.90
2022-12-17T22:13:15.965Z,62.20
2022-12-17T22:15:48.441Z,62.50
2022-12-17T22:18:19.484Z,61.60
2022-12-17T22:21:04.292Z,61.10
2022-12-17T22:23:36.251Z,61.70
2022-12-17T22:26:12.651Z,60.50
2022-12-17T22:28:47.798Z,61.50
2022-12-17T22:31:38.934Z,60.70
2022-12-17T22:34:51.063Z,61.50
2022-12-17T22:40:04.232Z,61.10
2022-12-17T22:44:05.237Z,60.60
2022-12-17T22:44:43.457Z,60.90
2022-12-17T22:46:00.688Z,59.60
2022-12-17T22:48:32.905Z,61.10
2022-12-17T22:51:20.752Z,60.70
2022-12-17T22:54:08.336Z,60.00
2022-12-17T22:57:32.850Z,59.90
2022-12-17T22:59:31.159Z,60.50
2022-12-17T23:02:01.978Z,59.80
2022-12-17T23:04:32.797Z,60.30
2022-12-17T23:07:03.654Z,59.80
2022-12-17T23:09:34.592Z,57.60
2022-12-17T23:12:24.952Z,59.90
2022-12-17T23:14:55.188Z,60.20
2022-12-17T23:17:25.630Z,60.20
2022-12-17T23:19:55.905Z,59.80
2022-12-17T23:22:26.607Z,59.40
2022-12-17T23:24:57.832Z,60.00
2022-12-17T23:27:29.506Z,59.90
2022-12-17T23:30:00.961Z,59.10
2022-12-17T23:32:31.718Z,58.20
2022-12-17T23:35:03.408Z,59.10
2022-12-17T23:37:39.368Z,58.90
2022-12-17T23:40:12.411Z,56.30
2022-12-17T23:43:02.286Z,57.90
2022-12-17T23:45:33.087Z,57.60
2022-12-17T23:48:04.754Z,57.00
2022-12-17T23:50:35.541Z,57.60
2022-12-17T23:53:05.863Z,57.20
2022-12-17T23:55:36.310Z,57.90
2022-12-17T23:58:06.624Z,56.50
